aviador You're here:

YSTW Decoded Metar

TAMWORTH in AUSTRALIA
Report Time2017-08-17 13:00:00
UTC Time2017-08-17 13:33:58
Flight Rules vfr VFR
Wind290° at 04 kt
W.Decomp.*RWY 30: 3.7 kt HW 1.4 kt LCW
RWY 24: 3.1 kt HW 2.5 kt RCW
RWY 36: 0.6 kt HW 4 kt LCW
W.Rank290° ranks 11
Current wind is below 290° avg. (7.4)
Visibility9999 m
Phenomena:N/A
Clouds:N/A
Expected CloudBase > 3,600 ft AGL from Temp-Dew spread
CeilingNone
Temp08°C (ISA -4)
Dew Point-1°C (53% RH)
AAT4.4°C
QNH1013 hPa
Density Alt909 ft
Elevation1,345 ft
Report Wrong Elevation
Raw Report
YSTW 171300Z AUTO 29004KT 9999 // NCD 08/M01 Q1013
RF00.0/000.0=

Extra information for YSTW:More info

Metar Taf Metar & Taf Last 4 Metars F.Rules Stats Wind Profile Meteogram Temp Stats Airport Information Weather charts Add Link Nearby VenuesMetar ALERT Operation Metar Decoded Social comments